Time;durP1;ratioP1;P1;durP2;ratioP2;P2;SDS_P1;SDS_P2;PMS_P1;PMS_P2;Temp;Humidity;BMP_temperature;BMP_pressure;BME280_temperature;BME280_humidity;BME280_pressure;Samples;Min_cycle;Max_cycle;Signal;HPM_P1;HPM_P2
2021/08/25 00:00:39;;;;;;;;;;;;;;;17.00;68.04;99984.69;5013249;28;19914;-78
2021/08/25 00:03:05;;;;;;;;;;;;;;;17.41;69.66;99992.47;5016573;28;19925;-78
2021/08/25 00:05:30;;;;;;;;;;;;;;;17.60;70.07;99989.03;5013111;28;20012;-77
2021/08/25 00:07:56;;;;;;;;;;;;;;;17.05;67.18;99982.75;5013211;28;20009;-78
2021/08/25 00:10:21;;;;;;;;;;;;;;;16.63;69.03;99978.41;5013066;28;19967;-77
2021/08/25 00:12:46;;;;;;;;;;;;;;;17.18;69.25;99979.63;5012297;28;20408;-77
2021/08/25 00:15:12;;;;;;;;;;;;;;;17.19;68.70;99976.09;4997445;28;19913;-77
2021/08/25 00:17:37;;;;;;;;;;;;;;;17.27;68.31;99971.41;5013848;28;19924;-77
2021/08/25 00:20:03;;;;;;;;;;;;;;;16.75;67.73;99973.63;5010628;28;19926;-77
2021/08/25 00:22:29;;;;;;;;;;;;;;;16.49;69.72;99973.78;5010416;28;19964;-77
2021/08/25 00:24:54;;;;;;;;;;;;;;;16.83;68.57;99972.41;4995390;28;20160;-78
2021/08/25 00:27:19;;;;;;;;;;;;;;;17.04;68.79;99970.66;4999402;28;19917;-77
2021/08/25 00:29:45;;;;;;;;;;;;;;;17.19;69.24;99966.53;5011641;28;19914;-77
2021/08/25 00:32:10;;;;;;;;;;;;;;;17.32;71.99;99964.22;5009233;28;19922;-77
2021/08/25 00:34:36;;;;;;;;;;;;;;;17.25;69.15;99968.03;4996455;28;19988;-77
2021/08/25 00:37:01;;;;;;;;;;;;;;;17.18;70.03;99961.41;5012939;28;20243;-78
2021/08/25 00:39:27;;;;;;;;;;;;;;;17.08;69.54;99956.59;4997229;28;19925;-77
2021/08/25 00:41:52;;;;;;;;;;;;;;;17.10;67.67;99962.56;5012610;28;20399;-78
2021/08/25 00:44:17;;;;;;;;;;;;;;;17.22;71.80;99960.31;5013416;28;19918;-77
2021/08/25 00:46:43;;;;;;;;;;;;;;;17.20;71.46;99956.97;4993746;28;20513;-77
2021/08/25 00:49:08;;;;;;;;;;;;;;;17.19;70.78;99955.28;4995065;28;19972;-77
2021/08/25 00:51:33;;;;;;;;;;;;;;;16.94;67.48;99953.72;5011240;28;19924;-78
2021/08/25 00:54:02;;;;;;;;;;;;;;;16.21;72.06;99950.63;5012606;28;20000;-77
2021/08/25 00:56:27;;;;;;;;;;;;;;;16.17;74.00;99941.28;5011048;28;20385;-77
2021/08/25 00:58:52;;;;;;;;;;;;;;;15.75;78.31;99942.03;5009577;28;20012;-77
2021/08/25 01:01:30;;;;;;;;;;;;;;;16.10;75.67;99942.41;4997456;28;20031;-78
2021/08/25 01:03:57;;;;;;;;;;;;;;;16.30;72.56;99941.63;4996603;28;19922;-78
2021/08/25 01:06:23;;;;;;;;;;;;;;;16.20;76.55;99941.16;5011073;28;19961;-78
2021/08/25 01:08:49;;;;;;;;;;;;;;;16.08;76.68;99939.06;5009924;28;19914;-77
2021/08/25 01:11:14;;;;;;;;;;;;;;;15.88;76.06;99942.44;4993130;28;20404;-77
2021/08/25 01:13:40;;;;;;;;;;;;;;;16.26;73.58;99935.72;5010855;28;19913;-77
2021/08/25 01:16:05;;;;;;;;;;;;;;;16.24;71.88;99942.72;5009182;28;19961;-77
2021/08/25 01:18:31;;;;;;;;;;;;;;;16.55;74.42;99940.63;5013788;28;19967;-77
2021/08/25 01:20:56;;;;;;;;;;;;;;;16.52;72.76;99937.25;4997318;28;19971;-77
2021/08/25 01:23:22;;;;;;;;;;;;;;;16.36;70.83;99940.53;5011774;28;19918;-77
2021/08/25 01:25:48;;;;;;;;;;;;;;;16.10;76.25;99938.09;5011682;28;19914;-78
2021/08/25 01:28:14;;;;;;;;;;;;;;;15.78;76.50;99931.56;5011304;28;19925;-78
2021/08/25 01:30:39;;;;;;;;;;;;;;;16.24;76.25;99932.34;5011060;28;19950;-78
2021/08/25 01:33:05;;;;;;;;;;;;;;;16.35;74.33;99936.25;5010632;28;19976;-77
2021/08/25 01:35:37;;;;;;;;;;;;;;;16.06;73.89;99930.47;5014908;28;19924;-77
2021/08/25 01:38:02;;;;;;;;;;;;;;;16.02;73.60;99934.09;5008933;28;19925;-78
2021/08/25 01:40:28;;;;;;;;;;;;;;;15.55;77.65;99931.53;5012013;28;19956;-78
2021/08/25 01:42:53;;;;;;;;;;;;;;;15.47;81.04;99922.28;5009602;28;19922;-76
2021/08/25 01:45:18;;;;;;;;;;;;;;;15.39;82.06;99926.06;4994177;28;19918;-77
2021/08/25 01:47:44;;;;;;;;;;;;;;;15.33;82.89;99923.72;5009529;28;19914;-77
2021/08/25 01:50:09;;;;;;;;;;;;;;;15.73;79.62;99917.03;5009606;28;20005;-77
2021/08/25 01:52:35;;;;;;;;;;;;;;;15.74;76.89;99916.16;4996106;28;19918;-77
2021/08/25 01:55:00;;;;;;;;;;;;;;;15.88;76.20;99919.06;5012172;28;19918;-77
2021/08/25 01:57:25;;;;;;;;;;;;;;;15.93;74.76;99911.91;4994521;28;19914;-77
2021/08/25 01:59:51;;;;;;;;;;;;;;;15.76;76.85;99915.19;5010892;28;20570;-77
2021/08/25 02:02:16;;;;;;;;;;;;;;;15.98;75.40;99909.97;4996303;28;19957;-76
2021/08/25 02:04:41;;;;;;;;;;;;;;;15.93;76.88;99911.91;4996146;28;19949;-77
2021/08/25 02:07:07;;;;;;;;;;;;;;;15.96;75.98;99910.94;5012180;28;19925;-78
2021/08/25 02:09:32;;;;;;;;;;;;;;;15.53;77.82;99908.25;5010892;28;19918;-77
2021/08/25 02:11:57;;;;;;;;;;;;;;;15.65;77.13;99912.13;5013905;28;19921;-77
2021/08/25 02:14:23;;;;;;;;;;;;;;;15.76;78.16;99910.00;5015539;28;19976;-77
2021/08/25 02:16:48;;;;;;;;;;;;;;;15.35;77.38;99904.59;5014560;28;19917;-77
2021/08/25 02:19:13;;;;;;;;;;;;;;;15.67;79.90;99902.53;5014800;28;19963;-77
2021/08/25 02:21:39;;;;;;;;;;;;;;;15.51;78.14;99893.59;5014576;28;20475;-77
2021/08/25 02:24:04;;;;;;;;;;;;;;;15.48;78.53;99890.22;5013724;28;19972;-78
2021/08/25 02:26:29;;;;;;;;;;;;;;;15.53;76.97;99892.66;5013865;28;19921;-77
2021/08/25 02:28:55;;;;;;;;;;;;;;;15.38;77.17;99888.88;5014796;28;19918;-77
2021/08/25 02:31:21;;;;;;;;;;;;;;;15.22;79.05;99882.59;5016007;28;19926;-77
2021/08/25 02:33:47;;;;;;;;;;;;;;;14.98;82.87;99885.16;5011600;28;20050;-77
2021/08/25 02:36:12;;;;;;;;;;;;;;;15.02;82.96;99875.53;5012469;28;19921;-78
2021/08/25 02:38:38;;;;;;;;;;;;;;;14.93;82.12;99874.09;5016223;28;19913;-77
2021/08/25 02:41:04;;;;;;;;;;;;;;;15.20;82.55;99876.59;5011101;28;19914;-77
2021/08/25 02:43:30;;;;;;;;;;;;;;;15.03;84.51;99872.03;5013295;28;20338;-76
2021/08/25 02:45:55;;;;;;;;;;;;;;;14.86;84.62;99875.22;4996668;28;20049;-77
2021/08/25 02:48:20;;;;;;;;;;;;;;;14.76;85.81;99864.34;5014258;28;19918;-77
2021/08/25 02:50:46;;;;;;;;;;;;;;;14.75;88.21;99865.22;5012019;28;19914;-77
2021/08/25 02:53:11;;;;;;;;;;;;;;;14.56;90.37;99859.00;5012323;28;19913;-77
2021/08/25 02:55:36;;;;;;;;;;;;;;;14.42;91.27;99856.84;5013923;28;19952;-77
2021/08/25 02:58:02;;;;;;;;;;;;;;;14.59;89.54;99857.13;4997358;28;19932;-78
2021/08/25 03:00:27;;;;;;;;;;;;;;;14.57;87.43;99852.91;4990741;28;19925;-78
2021/08/25 03:02:53;;;;;;;;;;;;;;;14.57;87.97;99843.41;5013241;28;19949;-77
2021/08/25 03:05:18;;;;;;;;;;;;;;;14.39;89.46;99843.97;5001152;28;19932;-78
2021/08/25 03:07:43;;;;;;;;;;;;;;;14.54;89.45;99850.41;4996308;28;19973;-78
2021/08/25 03:10:09;;;;;;;;;;;;;;;14.82;83.95;99847.69;5011592;28;19996;-77
2021/08/25 03:12:34;;;;;;;;;;;;;;;14.60;86.05;99848.47;5012740;28;19925;-78
2021/08/25 03:15:00;;;;;;;;;;;;;;;14.66;83.68;99843.97;5010607;28;20351;-77
2021/08/25 03:17:25;;;;;;;;;;;;;;;14.82;84.68;99847.69;5012716;28;19913;-77
2021/08/25 03:19:50;;;;;;;;;;;;;;;14.74;83.20;99850.56;5013468;28;20008;-78
2021/08/25 03:22:16;;;;;;;;;;;;;;;14.75;82.99;99849.66;5010865;28;20378;-78
2021/08/25 03:24:41;;;;;;;;;;;;;;;14.93;84.21;99853.34;5016550;28;19913;-77
2021/08/25 03:27:07;;;;;;;;;;;;;;;14.78;80.97;99846.09;4998153;28;20276;-78
2021/08/25 03:29:32;;;;;;;;;;;;;;;14.81;83.49;99851.22;5013052;28;19918;-77
2021/08/25 03:31:57;;;;;;;;;;;;;;;14.82;83.67;99845.09;4996434;28;19918;-77
2021/08/25 03:34:23;;;;;;;;;;;;;;;14.64;86.42;99844.00;5012449;28;19918;-78
2021/08/25 03:36:48;;;;;;;;;;;;;;;14.71;86.43;99839.47;4994781;28;19921;-77
2021/08/25 03:39:14;;;;;;;;;;;;;;;14.83;83.26;99845.06;4996259;28;20377;-77
2021/08/25 03:41:39;;;;;;;;;;;;;;;14.72;84.19;99842.00;4994383;28;19921;-77
2021/08/25 03:44:05;;;;;;;;;;;;;;;14.94;84.67;99833.44;5011100;28;19925;-77
2021/08/25 03:46:30;;;;;;;;;;;;;;;14.78;84.16;99836.59;5011854;28;19914;-77
2021/08/25 03:48:55;;;;;;;;;;;;;;;14.91;83.95;99826.63;4999242;28;19937;-77
2021/08/25 03:51:21;;;;;;;;;;;;;;;14.94;80.55;99831.72;5012672;28;20000;-77
2021/08/25 03:53:46;;;;;;;;;;;;;;;14.91;79.51;99830.97;5009875;28;19922;-77
2021/08/25 03:56:11;;;;;;;;;;;;;;;14.88;79.93;99825.91;5017182;28;19917;-78
2021/08/25 03:58:37;;;;;;;;;;;;;;;14.94;84.98;99818.75;5012368;28;19924;-77
2021/08/25 04:01:02;;;;;;;;;;;;;;;14.95;85.97;99823.03;5011650;28;19917;-77
2021/08/25 04:03:28;;;;;;;;;;;;;;;14.86;86.17;99825.94;5011380;28;19924;-77
2021/08/25 04:05:53;;;;;;;;;;;;;;;14.78;84.56;99815.00;5012271;28;19936;-77
2021/08/25 04:08:18;;;;;;;;;;;;;;;14.81;84.29;99814.91;5012386;28;19960;-77
2021/08/25 04:10:43;;;;;;;;;;;;;;;14.75;85.58;99820.31;4996380;28;19914;-77
2021/08/25 04:13:09;;;;;;;;;;;;;;;14.68;82.43;99818.84;5011531;28;19957;-77
2021/08/25 04:15:34;;;;;;;;;;;;;;;14.46;87.42;99813.53;5000112;28;19948;-77
2021/08/25 04:17:59;;;;;;;;;;;;;;;14.49;88.69;99811.69;5011443;28;19922;-78
2021/08/25 04:20:25;;;;;;;;;;;;;;;14.56;87.94;99815.78;5011646;28;19956;-77
2021/08/25 04:22:50;;;;;;;;;;;;;;;14.53;85.52;99813.28;5012505;28;19928;-77
2021/08/25 04:25:15;;;;;;;;;;;;;;;14.32;87.11;99811.41;4997652;28;20786;-77
2021/08/25 04:27:41;;;;;;;;;;;;;;;14.44;86.53;99811.00;5014704;28;19937;-78
2021/08/25 04:30:06;;;;;;;;;;;;;;;14.50;88.58;99805.59;4993300;28;19961;-78
2021/08/25 04:32:32;;;;;;;;;;;;;;;14.32;86.68;99806.22;5008409;28;19918;-78
2021/08/25 04:34:57;;;;;;;;;;;;;;;14.22;91.20;99806.53;5012154;28;19917;-78
2021/08/25 04:37:22;;;;;;;;;;;;;;;14.44;93.39;99811.00;5014604;28;20377;-78
2021/08/25 04:39:48;;;;;;;;;;;;;;;14.42;90.86;99816.22;5012847;28;19922;-77
2021/08/25 04:42:13;;;;;;;;;;;;;;;14.35;88.94;99806.13;5010786;28;20012;-78
2021/08/25 04:44:38;;;;;;;;;;;;;;;14.35;91.27;99812.16;4994273;28;19928;-78
2021/08/25 04:47:04;;;;;;;;;;;;;;;14.47;91.50;99816.06;5014890;28;19917;-78
2021/08/25 04:49:29;;;;;;;;;;;;;;;14.41;89.09;99811.97;5010862;28;19935;-78
2021/08/25 04:51:55;;;;;;;;;;;;;;;14.50;90.04;99813.34;5012347;28;19940;-78
2021/08/25 04:54:20;;;;;;;;;;;;;;;14.40;87.12;99812.00;5012888;28;19936;-79
2021/08/25 04:56:45;;;;;;;;;;;;;;;14.45;89.58;99817.88;5009323;28;20250;-78
2021/08/25 04:59:11;;;;;;;;;;;;;;;14.67;88.98;99817.16;5008122;28;19932;-78
2021/08/25 05:01:36;;;;;;;;;;;;;;;14.56;90.48;99814.94;5009291;28;19917;-78
2021/08/25 05:04:01;;;;;;;;;;;;;;;14.50;90.98;99813.34;5011731;28;19948;-78
2021/08/25 05:06:27;;;;;;;;;;;;;;;14.56;87.95;99818.38;5011271;28;19956;-78
2021/08/25 05:08:52;;;;;;;;;;;;;;;14.63;81.51;99817.25;4995971;28;20326;-77
2021/08/25 05:11:17;;;;;;;;;;;;;;;14.81;90.08;99814.91;5013391;28;19956;-77
2021/08/25 05:13:43;;;;;;;;;;;;;;;14.75;83.05;99818.53;4994704;28;19922;-78
2021/08/25 05:16:12;;;;;;;;;;;;;;;14.64;87.12;99813.78;5014240;28;19921;-78
2021/08/25 05:18:38;;;;;;;;;;;;;;;14.62;83.76;99806.94;5012191;28;19925;-78
2021/08/25 05:21:03;;;;;;;;;;;;;;;14.87;82.04;99811.22;4997678;28;19917;-78
2021/08/25 05:23:28;;;;;;;;;;;;;;;15.05;88.70;99807.94;5014683;28;20008;-78
2021/08/25 05:25:53;;;;;;;;;;;;;;;15.12;78.17;99808.56;5010342;28;19918;-78
2021/08/25 05:28:19;;;;;;;;;;;;;;;15.14;86.94;99810.19;4997416;28;19918;-78
2021/08/25 05:30:44;;;;;;;;;;;;;;;15.11;79.88;99806.88;5007592;28;19917;-76
2021/08/25 05:33:10;;;;;;;;;;;;;;;14.97;84.50;99808.25;4995370;28;19922;-78
2021/08/25 05:35:35;;;;;;;;;;;;;;;14.98;81.17;99803.91;4995061;28;19911;-76
2021/08/25 05:38:00;;;;;;;;;;;;;;;15.26;83.69;99801.97;4996010;28;19917;-76
2021/08/25 05:40:26;;;;;;;;;;;;;;;15.29;79.23;99801.00;5005800;28;19963;-77
2021/08/25 05:42:51;;;;;;;;;;;;;;;15.56;82.39;99804.25;4992951;28;19924;-76
2021/08/25 05:45:16;;;;;;;;;;;;;;;15.50;81.92;99798.47;5009300;28;20788;-77
2021/08/25 05:47:42;;;;;;;;;;;;;;;15.65;83.75;99808.25;5013264;28;19948;-76
2021/08/25 05:50:08;;;;;;;;;;;;;;;15.57;84.25;99797.31;5014022;28;20292;-77
2021/08/25 05:52:33;;;;;;;;;;;;;;;15.87;81.23;99808.25;5008930;28;19958;-77
2021/08/25 05:54:58;;;;;;;;;;;;;;;16.02;85.12;99802.44;5014074;28;19941;-77
2021/08/25 05:57:23;;;;;;;;;;;;;;;16.25;88.77;99813.63;5010630;28;20041;-76
2021/08/25 05:59:49;;;;;;;;;;;;;;;16.10;84.83;99809.88;4996607;28;20033;-77
2021/08/25 06:02:14;;;;;;;;;;;;;;;15.83;92.62;99812.75;4994640;28;19929;-76
2021/08/25 06:04:40;;;;;;;;;;;;;;;16.15;80.83;99807.97;4994772;28;19960;-77
2021/08/25 06:07:09;;;;;;;;;;;;;;;16.31;84.97;99809.00;4996226;28;19964;-76
2021/08/25 06:09:36;;;;;;;;;;;;;;;16.58;79.16;99795.72;5017792;28;19981;-76
2021/08/25 06:12:01;;;;;;;;;;;;;;;16.72;82.34;99806.34;5011385;28;19930;-77
2021/08/25 06:14:26;;;;;;;;;;;;;;;16.92;82.43;99807.25;4998540;28;20290;-76
2021/08/25 06:16:52;;;;;;;;;;;;;;;16.88;79.05;99805.72;4997440;28;19917;-76
2021/08/25 06:19:17;;;;;;;;;;;;;;;17.20;80.57;99803.41;5012834;28;19967;-76
2021/08/25 06:21:45;;;;;;;;;;;;;;;17.04;88.73;99803.25;4997107;28;19937;-76
2021/08/25 06:24:11;;;;;;;;;;;;;;;16.71;90.79;99802.06;5012709;28;19929;-76
2021/08/25 06:26:36;;;;;;;;;;;;;;;16.73;91.26;99800.22;4996762;28;20296;-76
2021/08/25 06:29:02;;;;;;;;;;;;;;;17.07;89.86;99792.69;4994707;28;20497;-76
2021/08/25 06:31:27;;;;;;;;;;;;;;;17.53;84.77;99783.56;4994343;28;20004;-77
2021/08/25 06:33:52;;;;;;;;;;;;;;;17.84;80.46;99782.09;5010989;28;19993;-76
2021/08/25 06:36:18;;;;;;;;;;;;;;;18.03;86.91;99784.63;5011590;28;19917;-75
2021/08/25 06:38:43;;;;;;;;;;;;;;;18.04;82.78;99785.47;5010932;28;20390;-76
2021/08/25 06:41:08;;;;;;;;;;;;;;;17.89;81.10;99781.88;5013335;28;19917;-76
2021/08/25 06:43:34;;;;;;;;;;;;;;;18.27;84.99;99782.56;4998759;28;19925;-76
2021/08/25 06:45:59;;;;;;;;;;;;;;;18.60;80.04;99779.09;5012551;28;19967;-76
2021/08/25 06:48:24;;;;;;;;;;;;;;;18.74;77.52;99776.59;5009544;28;19922;-76
2021/08/25 06:50:49;;;;;;;;;;;;;;;18.77;76.31;99771.25;4994727;28;20793;-76
2021/08/25 06:53:15;;;;;;;;;;;;;;;19.02;79.18;99769.91;4996589;28;19921;-76
2021/08/25 06:55:40;;;;;;;;;;;;;;;19.27;79.04;99776.41;5012203;28;19961;-76
2021/08/25 06:58:06;;;;;;;;;;;;;;;19.46;77.00;99764.00;4995614;28;19922;-76
2021/08/25 07:00:31;;;;;;;;;;;;;;;19.69;80.65;99769.75;5011259;28;20395;-76
2021/08/25 07:02:56;;;;;;;;;;;;;;;19.35;80.07;99775.06;4996878;28;20005;-76
2021/08/25 07:05:22;;;;;;;;;;;;;;;19.38;73.39;99774.03;5009774;28;19917;-76
2021/08/25 07:07:47;;;;;;;;;;;;;;;19.76;71.97;99771.06;5012066;28;19925;-76
2021/08/25 07:10:12;;;;;;;;;;;;;;;19.32;71.87;99780.47;4996437;28;20365;-75
2021/08/25 07:12:38;;;;;;;;;;;;;;;18.39;79.45;99776.69;4991632;28;20581;-76
2021/08/25 07:15:03;;;;;;;;;;;;;;;19.09;76.35;99775.66;5010699;28;20000;-76
2021/08/25 07:17:29;;;;;;;;;;;;;;;18.65;78.35;99782.31;4994874;28;19897;-76
2021/08/25 07:19:54;;;;;;;;;;;;;;;18.52;78.91;99787.34;4997623;28;19921;-76
2021/08/25 07:22:21;;;;;;;;;;;;;;;18.05;77.02;99787.16;4996529;28;19964;-76
2021/08/25 07:24:46;;;;;;;;;;;;;;;17.44;81.48;99789.19;4994444;28;19918;-75
2021/08/25 07:27:12;;;;;;;;;;;;;;;18.52;83.62;99789.09;4995737;28;20020;-76
2021/08/25 07:29:37;;;;;;;;;;;;;;;17.73;81.51;99792.19;4997556;28;20395;-75
2021/08/25 07:32:02;;;;;;;;;;;;;;;17.94;81.13;99785.94;4998979;28;19922;-75
2021/08/25 07:34:28;;;;;;;;;;;;;;;17.55;84.54;99784.31;4995946;28;19971;-76
2021/08/25 07:36:53;;;;;;;;;;;;;;;18.24;90.42;99777.47;4995869;28;19913;-76
2021/08/25 07:39:19;;;;;;;;;;;;;;;19.09;78.35;99780.88;5009125;28;19948;-76
2021/08/25 07:41:44;;;;;;;;;;;;;;;18.16;85.20;99779.66;5008321;28;19918;-75
2021/08/25 07:44:09;;;;;;;;;;;;;;;19.01;79.51;99778.69;4996794;28;19933;-75
2021/08/25 07:46:34;;;;;;;;;;;;;;;19.23;75.10;99778.38;5010428;28;19918;-76
2021/08/25 07:49:03;;;;;;;;;;;;;;;18.17;80.00;99776.09;4995943;28;19960;-75
2021/08/25 07:51:28;;;;;;;;;;;;;;;18.12;80.81;99770.28;5012535;28;19921;-76
2021/08/25 07:53:54;;;;;;;;;;;;;;;18.50;76.79;99775.31;5013152;28;19928;-75
2021/08/25 07:56:19;;;;;;;;;;;;;;;18.54;77.85;99768.97;5008430;28;19921;-80
2021/08/25 07:58:44;;;;;;;;;;;;;;;18.91;74.43;99767.91;4992473;28;19921;-76
2021/08/25 08:01:10;;;;;;;;;;;;;;;18.62;78.62;99768.59;4995071;28;20431;-76
2021/08/25 08:03:35;;;;;;;;;;;;;;;20.51;75.16;99769.22;5013029;28;19936;-76
2021/08/25 08:06:00;;;;;;;;;;;;;;;19.69;69.79;99767.97;4997741;28;19918;-76
2021/08/25 08:08:26;;;;;;;;;;;;;;;19.23;83.67;99773.97;4997046;28;19964;-77
2021/08/25 08:10:52;;;;;;;;;;;;;;;20.23;72.13;99775.25;4996153;28;20389;-76
2021/08/25 08:13:17;;;;;;;;;;;;;;;20.34;73.46;99772.84;4994437;28;20339;-76
2021/08/25 08:15:44;;;;;;;;;;;;;;;20.26;73.48;99769.88;5012281;28;20041;-76
2021/08/25 08:18:11;;;;;;;;;;;;;;;22.00;66.07;99761.53;5012598;28;19918;-76
2021/08/25 08:20:37;;;;;;;;;;;;;;;21.24;64.64;99769.06;4996107;28;19926;-76
2021/08/25 08:23:02;;;;;;;;;;;;;;;21.18;68.43;99766.81;4995750;28;19913;-76
2021/08/25 08:25:27;;;;;;;;;;;;;;;20.06;70.35;99771.88;5010392;28;19913;-76
2021/08/25 08:27:53;;;;;;;;;;;;;;;20.97;66.52;99760.34;5011881;28;19918;-76
2021/08/25 08:30:18;;;;;;;;;;;;;;;21.71;64.29;99752.06;4995140;28;19956;-76
2021/08/25 08:32:43;;;;;;;;;;;;;;;20.78;67.72;99756.25;5007819;28;19992;-76
2021/08/25 08:35:09;;;;;;;;;;;;;;;20.77;74.18;99754.56;5012720;28;19917;-76
2021/08/25 08:37:34;;;;;;;;;;;;;;;20.86;70.92;99758.38;5010861;28;19970;-76
2021/08/25 08:39:59;;;;;;;;;;;;;;;20.86;65.45;99758.38;4997185;28;19922;-76
2021/08/25 08:42:32;;;;;;;;;;;;;;;22.12;67.26;99752.81;4993297;28;20340;-76
2021/08/25 08:44:57;;;;;;;;;;;;;;;20.79;68.07;99752.69;4997455;28;19917;-76
2021/08/25 08:47:26;;;;;;;;;;;;;;;20.92;64.94;99757.19;5013132;28;19917;-76
2021/08/25 08:49:53;;;;;;;;;;;;;;;21.35;64.64;99754.41;5011539;28;19917;-76
2021/08/25 08:52:19;;;;;;;;;;;;;;;21.45;62.49;99755.53;5011603;28;19914;-76
2021/08/25 08:54:44;;;;;;;;;;;;;;;23.23;57.91;99743.34;5012471;28;20277;-76
2021/08/25 08:57:09;;;;;;;;;;;;;;;23.74;57.08;99750.13;5012559;28;20352;-76
2021/08/25 08:59:35;;;;;;;;;;;;;;;21.71;57.34;99751.19;5010559;28;19913;-76
2021/08/25 09:02:00;;;;;;;;;;;;;;;21.88;55.90;99744.84;4994264;28;19918;-76
2021/08/25 09:04:35;;;;;;;;;;;;;;;22.42;55.79;99746.44;5010649;28;19984;-77
2021/08/25 09:07:00;;;;;;;;;;;;;;;21.21;58.76;99737.84;5009430;28;19985;-77
2021/08/25 09:09:26;;;;;;;;;;;;;;;22.62;57.44;99731.94;5008302;28;20000;-77
2021/08/25 09:11:52;;;;;;;;;;;;;;;23.53;56.31;99728.91;4994287;28;20282;-76
2021/08/25 09:14:17;;;;;;;;;;;;;;;23.90;50.86;99726.16;5008761;28;19918;-77
2021/08/25 09:16:43;;;;;;;;;;;;;;;24.07;49.03;99727.53;4997908;28;20312;-77
2021/08/25 09:19:09;;;;;;;;;;;;;;;24.71;50.58;99719.06;5013817;28;19924;-77
2021/08/25 09:21:39;;;;;;;;;;;;;;;24.61;51.85;99719.78;5010378;28;19921;-77
2021/08/25 09:24:06;;;;;;;;;;;;;;;22.57;57.46;99729.66;5016692;28;20324;-77
2021/08/25 09:26:32;;;;;;;;;;;;;;;23.14;55.43;99728.25;5011964;28;19926;-77
2021/08/25 09:29:17;;;;;;;;;;;;;;;23.05;53.11;99718.41;4999788;28;19918;-77
2021/08/25 09:31:43;;;;;;;;;;;;;;;22.31;56.50;99723.59;5011657;28;20293;-77
2021/08/25 09:34:22;;;;;;;;;;;;;;;22.90;58.39;99715.91;5011531;28;19928;-77
2021/08/25 09:36:47;;;;;;;;;;;;;;;22.60;53.71;99716.28;4989740;28;19924;-77
2021/08/25 09:39:12;;;;;;;;;;;;;;;22.05;52.60;99720.94;5014036;28;19913;-77
2021/08/25 09:41:38;;;;;;;;;;;;;;;22.03;57.32;99714.09;5007814;28;20341;-78
2021/08/25 09:44:13;;;;;;;;;;;;;;;21.87;56.36;99711.69;5008838;28;19913;-77
2021/08/25 09:46:46;;;;;;;;;;;;;;;22.20;58.71;99710.34;5008688;28;19926;-77
2021/08/25 09:49:12;;;;;;;;;;;;;;;23.34;52.43;99706.59;5007814;28;20017;-78
2021/08/25 09:51:38;;;;;;;;;;;;;;;23.05;59.88;99705.28;5010107;28;20403;-78
2021/08/25 09:54:05;;;;;;;;;;;;;;;22.82;52.06;99706.91;5008247;28;19933;-77
2021/08/25 09:56:32;;;;;;;;;;;;;;;22.29;54.44;99707.94;5011557;28;19980;-77
2021/08/25 09:58:58;;;;;;;;;;;;;;;22.44;54.57;99707.81;5008954;28;20842;-78
2021/08/25 10:01:23;;;;;;;;;;;;;;;24.39;56.43;99706.59;5010820;28;19918;-78
2021/08/25 10:03:49;;;;;;;;;;;;;;;24.54;54.80;99707.22;4992062;28;19917;-78
2021/08/25 10:06:15;;;;;;;;;;;;;;;25.71;47.55;99693.34;4992098;28;19929;-78
2021/08/25 10:08:41;;;;;;;;;;;;;;;23.56;47.53;99697.13;5009907;28;20439;-78
2021/08/25 10:11:09;;;;;;;;;;;;;;;24.10;51.61;99690.44;5008892;28;19918;-78
2021/08/25 10:13:35;;;;;;;;;;;;;;;24.59;50.85;99690.09;5007737;28;20085;-78
2021/08/25 10:16:00;;;;;;;;;;;;;;;22.72;46.32;99690.97;5009319;28;20290;-79
2021/08/25 10:18:30;;;;;;;;;;;;;;;23.23;45.01;99684.72;5009720;28;19972;-79
2021/08/25 10:20:59;;;;;;;;;;;;;;;22.80;51.56;99688.63;5008556;28;20342;-79
2021/08/25 10:23:43;;;;;;;;;;;;;;;22.52;48.60;99677.47;5003001;28;19914;-79
2021/08/25 10:26:08;;;;;;;;;;;;;;;22.98;50.60;99675.94;4991662;28;20004;-79
2021/08/25 10:28:52;;;;;;;;;;;;;;;22.10;52.86;99681.25;5008178;28;20004;-78
2021/08/25 10:31:18;;;;;;;;;;;;;;;24.05;51.50;99664.50;4997248;28;19917;-78
2021/08/25 10:34:03;;;;;;;;;;;;;;;24.24;48.81;99661.25;4997331;28;19925;-78
2021/08/25 10:36:28;;;;;;;;;;;;;;;24.87;46.84;99652.81;4998528;28;19918;-78
2021/08/25 10:38:54;;;;;;;;;;;;;;;24.72;50.99;99644.34;5013344;28;20499;-78
2021/08/25 10:41:19;;;;;;;;;;;;;;;26.25;42.67;99642.09;5015453;28;19925;-78
2021/08/25 10:43:45;;;;;;;;;;;;;;;25.65;41.14;99638.44;4998064;28;19909;-78
2021/08/25 10:46:13;;;;;;;;;;;;;;;23.70;46.57;99641.72;5012954;28;19949;-78
2021/08/25 10:48:50;;;;;;;;;;;;;;;24.47;50.93;99633.13;5011488;28;20316;-78
2021/08/25 10:51:41;;;;;;;;;;;;;;;24.45;45.04;99632.41;4996698;28;19917;-78
2021/08/25 10:54:08;;;;;;;;;;;;;;;26.46;43.61;99625.34;4996223;28;19952;-78
2021/08/25 10:56:34;;;;;;;;;;;;;;;22.97;50.17;99637.50;4997149;28;19932;-78
2021/08/25 10:59:03;;;;;;;;;;;;;;;24.60;44.60;99617.19;5011733;28;19922;-78
2021/08/25 11:01:33;;;;;;;;;;;;;;;24.97;43.39;99612.41;5013248;28;19944;-78
2021/08/25 11:04:02;;;;;;;;;;;;;;;24.65;41.75;99612.38;5010268;28;20480;-78
2021/08/25 11:06:28;;;;;;;;;;;;;;;23.82;41.95;99603.13;5019069;28;19940;-78
2021/08/25 11:09:08;;;;;;;;;;;;;;;26.35;40.79;99594.59;5012021;28;19918;-78
2021/08/25 11:11:33;;;;;;;;;;;;;;;25.92;43.27;99586.97;5011466;28;19926;-79
2021/08/25 11:13:58;;;;;;;;;;;;;;;27.70;43.03;99581.47;5012808;28;19940;-78
2021/08/25 11:16:24;;;;;;;;;;;;;;;26.64;43.40;99584.09;5012611;28;20309;-78
2021/08/25 11:18:50;;;;;;;;;;;;;;;24.63;48.15;99578.28;5012047;28;19921;-78
2021/08/25 11:21:15;;;;;;;;;;;;;;;24.02;48.46;99583.16;5010654;28;20960;-78
2021/08/25 11:23:53;;;;;;;;;;;;;;;25.53;46.47;99581.47;5009922;28;19913;-78
2021/08/25 11:26:18;;;;;;;;;;;;;;;25.99;44.29;99578.38;4998925;28;20361;-78
2021/08/25 11:28:43;;;;;;;;;;;;;;;25.41;43.22;99583.34;5011815;28;19964;-78
2021/08/25 11:31:10;;;;;;;;;;;;;;;26.43;44.01;99570.13;5014106;28;19968;-78
2021/08/25 11:33:45;;;;;;;;;;;;;;;25.72;43.26;99573.63;5011928;28;19957;-78
2021/08/25 11:36:10;;;;;;;;;;;;;;;25.69;39.31;99571.28;5014374;28;19925;-78
2021/08/25 11:38:36;;;;;;;;;;;;;;;26.25;40.59;99556.75;5010383;28;19961;-78
2021/08/25 11:41:01;;;;;;;;;;;;;;;25.29;39.29;99558.81;5013283;28;19914;-78
2021/08/25 11:43:26;;;;;;;;;;;;;;;24.00;43.73;99558.78;5009793;28;19917;-78
2021/08/25 11:45:52;;;;;;;;;;;;;;;24.79;46.50;99548.03;4996679;28;19918;-78
2021/08/25 11:48:19;;;;;;;;;;;;;;;26.82;40.08;99549.03;5010852;28;19928;-78
2021/08/25 11:50:44;;;;;;;;;;;;;;;24.36;45.92;99543.66;5013326;28;19960;-78
2021/08/25 11:53:17;;;;;;;;;;;;;;;27.67;49.23;99534.16;5012763;28;19972;-78
2021/08/25 11:55:42;;;;;;;;;;;;;;;26.41;41.77;99529.81;5011757;28;19917;-78
2021/08/25 11:58:21;;;;;;;;;;;;;;;26.51;40.08;99533.31;5013027;28;20415;-78
2021/08/25 12:00:46;;;;;;;;;;;;;;;24.89;42.63;99538.44;5012304;28;19918;-78
2021/08/25 12:03:12;;;;;;;;;;;;;;;28.16;42.38;99534.75;5013513;28;19984;-78
2021/08/25 12:05:49;;;;;;;;;;;;;;;27.15;38.19;99531.91;5009979;28;19957;-78
2021/08/25 12:08:14;;;;;;;;;;;;;;;26.90;39.82;99530.69;5010731;28;19918;-78
2021/08/25 12:10:44;;;;;;;;;;;;;;;25.84;40.63;99527.75;5013154;28;19921;-79
2021/08/25 12:13:11;;;;;;;;;;;;;;;25.38;43.03;99536.94;5010311;28;19926;-78
2021/08/25 12:15:50;;;;;;;;;;;;;;;25.31;41.02;99520.00;5007367;28;19913;-78
2021/08/25 12:18:15;;;;;;;;;;;;;;;24.58;37.95;99511.97;4998304;28;20178;-78
2021/08/25 12:20:42;;;;;;;;;;;;;;;23.57;42.13;99515.59;5013365;28;19980;-79
2021/08/25 12:23:08;;;;;;;;;;;;;;;25.12;41.17;99506.69;5011075;28;19956;-78
2021/08/25 12:25:42;;;;;;;;;;;;;;;25.51;38.00;99501.63;5010737;28;19999;-78
2021/08/25 12:28:08;;;;;;;;;;;;;;;24.70;40.63;99499.63;4996387;28;19924;-78
2021/08/25 12:30:35;;;;;;;;;;;;;;;24.30;43.71;99496.75;5009410;28;19940;-79
2021/08/25 12:33:04;;;;;;;;;;;;;;;25.16;40.00;99487.84;5009427;28;19925;-78
2021/08/25 12:35:30;;;;;;;;;;;;;;;28.21;45.96;99478.69;5010157;28;19980;-78
2021/08/25 12:37:55;;;;;;;;;;;;;;;26.50;38.47;99473.50;5011419;28;19922;-78
2021/08/25 12:40:22;;;;;;;;;;;;;;;25.47;39.34;99472.06;4996547;28;19932;-78
2021/08/25 12:42:48;;;;;;;;;;;;;;;25.07;42.52;99464.91;5014117;28;19924;-78